createdAt,value
2018-04-17T09:24:33.488Z,1021.28
2018-04-17T09:25:42.309Z,1021.3
2018-04-17T09:26:51.121Z,1021.32
2018-04-17T09:28:00.212Z,1021.34
2018-04-17T09:29:09.033Z,1021.33
2018-04-17T09:30:17.861Z,1021.42
2018-04-17T09:31:26.673Z,1021.39
2018-04-17T09:32:35.504Z,1021.41
2018-04-17T09:33:44.322Z,1021.38
2018-04-17T09:34:53.146Z,1021.42
2018-04-17T09:36:01.995Z,1021.51
2018-04-17T09:37:10.790Z,1021.54
2018-04-17T09:38:19.616Z,1021.51
2018-04-17T09:39:28.712Z,1021.49
2018-04-17T09:40:37.529Z,1021.52
2018-04-17T09:41:46.349Z,1021.57
2018-04-17T09:42:55.169Z,1021.55
2018-04-17T09:44:03.986Z,1021.53
2018-04-17T09:45:12.877Z,1021.56
2018-04-17T09:46:21.989Z,1021.57
2018-04-17T09:47:30.825Z,1021.55
2018-04-17T09:48:39.695Z,1021.59
2018-04-17T09:49:48.520Z,1021.58
2018-04-17T09:50:57.339Z,1021.57
2018-04-17T09:52:06.234Z,1021.55
2018-04-17T09:53:15.163Z,1021.53
2018-04-17T09:54:24.143Z,1021.5
2018-04-17T09:55:33.481Z,1021.54
2018-04-17T09:56:42.326Z,1021.57
2018-04-17T09:57:51.171Z,1021.56
2018-04-17T09:59:00.024Z,1021.56
2018-04-17T10:00:08.883Z,1021.53
2018-04-17T10:01:17.727Z,1021.55
2018-04-17T10:02:26.570Z,1021.47
2018-04-17T10:03:35.465Z,1021.47
2018-04-17T10:04:44.247Z,1021.5
2018-04-17T10:05:53.082Z,1021.55
2018-04-17T10:07:01.938Z,1021.51
2018-04-17T10:08:10.764Z,1021.51
2018-04-17T10:09:19.609Z,1021.45
2018-04-17T10:10:28.449Z,1021.48
2018-04-17T10:11:37.286Z,1021.47
2018-04-17T10:12:46.120Z,1021.47
2018-04-17T10:13:54.959Z,1021.48
2018-04-17T10:15:03.801Z,1021.52
2018-04-17T10:16:12.635Z,1021.52
2018-04-17T10:17:21.504Z,1021.52
2018-04-17T10:18:30.320Z,1021.46
2018-04-17T10:19:39.439Z,1021.53
2018-04-17T10:20:48.274Z,1021.6
2018-04-17T10:21:57.117Z,1021.53
2018-04-17T10:23:05.950Z,1021.57
2018-04-17T10:24:14.787Z,1021.59
2018-04-17T10:25:23.630Z,1021.57
2018-04-17T10:26:32.469Z,1021.59
2018-04-17T10:27:41.353Z,1021.58
2018-04-17T10:28:50.332Z,1021.52
2018-04-17T10:29:59.306Z,1021.53
2018-04-17T10:31:08.972Z,1021.47
2018-04-17T10:32:17.895Z,1021.47
2018-04-17T10:33:26.846Z,1021.42
2018-04-17T10:34:35.817Z,1021.44
2018-04-17T10:35:44.739Z,1021.45
2018-04-17T10:36:53.764Z,1021.4
2018-04-17T10:38:03.005Z,1021.46
2018-04-17T10:39:12.089Z,1021.39
2018-04-17T10:40:21.113Z,1021.3
2018-04-17T10:41:29.948Z,1021.42
2018-04-17T10:42:38.770Z,1021.4
2018-04-17T10:43:47.595Z,1021.36
2018-04-17T10:44:56.415Z,1021.3
2018-04-17T10:46:05.244Z,1021.28
2018-04-17T10:47:14.064Z,1021.35
2018-04-17T10:48:22.889Z,1021.32
2018-04-17T10:49:31.706Z,1021.32
2018-04-17T10:50:40.540Z,1021.34
2018-04-17T10:51:49.364Z,1021.35
2018-04-17T10:52:58.188Z,1021.33
2018-04-17T10:54:07.014Z,1021.32
2018-04-17T10:55:15.832Z,1021.36
2018-04-17T10:56:24.655Z,1021.35
2018-04-17T10:57:33.480Z,1021.38
2018-04-17T10:58:42.581Z,1021.38
2018-04-17T10:59:51.508Z,1021.36
2018-04-17T11:01:00.451Z,1021.34
2018-04-17T11:02:09.358Z,1021.34
2018-04-17T11:03:18.300Z,1021.32
2018-04-17T11:04:27.157Z,1021.31
2018-04-17T11:05:36.342Z,1021.35
2018-04-17T11:06:45.317Z,1021.37
2018-04-17T11:07:54.204Z,1021.34
2018-04-17T11:09:03.123Z,1021.31
2018-04-17T11:10:11.950Z,1021.39
2018-04-17T11:11:20.772Z,1021.3
2018-04-17T11:12:29.602Z,1021.28
2018-04-17T11:13:38.430Z,1021.3
2018-04-17T11:14:47.257Z,1021.23
2018-04-17T11:15:56.080Z,1021.23
2018-04-17T11:17:04.902Z,1021.34
2018-04-17T11:18:13.731Z,1021.33
2018-04-17T11:19:22.559Z,1021.38
2018-04-17T11:20:31.392Z,1021.33
2018-04-17T11:21:40.316Z,1021.35
2018-04-17T11:22:49.138Z,1021.36
2018-04-17T11:23:57.966Z,1021.33
2018-04-17T11:25:06.792Z,1021.38
2018-04-17T11:26:15.619Z,1021.39
2018-04-17T11:27:24.450Z,1021.37
2018-04-17T11:28:33.591Z,1021.39
2018-04-17T11:29:42.454Z,1021.34
2018-04-17T11:30:51.276Z,1021.42
2018-04-17T11:32:00.110Z,1021.39
2018-04-17T11:33:08.928Z,1021.45
2018-04-17T11:34:17.785Z,1021.41
2018-04-17T11:35:26.983Z,1021.46
2018-04-17T11:36:35.818Z,1021.47
2018-04-17T11:37:44.749Z,1021.47
2018-04-17T11:38:53.696Z,1021.41
2018-04-17T11:40:02.567Z,1021.42
2018-04-17T11:41:11.497Z,1021.43
2018-04-17T11:42:20.662Z,1021.5
2018-04-17T11:43:29.525Z,1021.56
2018-04-17T11:44:38.447Z,1021.56
2018-04-17T11:45:47.694Z,1021.5
2018-04-17T11:46:56.521Z,1021.51
2018-04-17T11:48:05.390Z,1021.52
2018-04-17T11:49:14.379Z,1021.52
2018-04-17T11:50:23.264Z,1021.52
2018-04-17T11:51:32.166Z,1021.58
2018-04-17T11:52:41.039Z,1021.54
2018-04-17T11:55:20.059Z,1021.58
2018-04-17T11:56:29.383Z,1021.62
2018-04-17T11:57:38.210Z,1021.58
2018-04-17T11:58:47.042Z,1021.61
2018-04-17T11:59:55.866Z,1021.64
2018-04-17T12:01:04.706Z,1021.65
2018-04-17T12:02:13.560Z,1021.66
2018-04-17T12:03:22.390Z,1021.63
2018-04-17T12:04:31.206Z,1021.63
2018-04-17T12:05:40.309Z,1021.62
2018-04-17T12:06:49.138Z,1021.62
2018-04-17T12:07:57.966Z,1021.71
2018-04-17T12:09:06.799Z,1021.75
2018-04-17T12:10:15.620Z,1021.84
2018-04-17T12:11:24.459Z,1021.79
2018-04-17T12:12:33.282Z,1021.89
2018-04-17T12:13:42.113Z,1021.91
2018-04-17T12:14:51.208Z,1021.97
2018-04-17T12:16:00.037Z,1021.9
2018-04-17T12:17:08.870Z,1021.85
2018-04-17T12:18:17.701Z,1021.81
2018-04-17T12:19:26.527Z,1021.86
2018-04-17T12:20:35.351Z,1021.82
2018-04-17T12:21:44.180Z,1021.83
2018-04-17T12:22:53.026Z,1021.85
2018-04-17T12:24:01.841Z,1021.92
2018-04-17T12:25:10.664Z,1021.88
2018-04-17T12:26:19.496Z,1021.86
2018-04-17T12:27:28.590Z,1021.95
2018-04-17T12:28:37.421Z,1021.89
2018-04-17T12:29:46.246Z,1021.95
2018-04-17T12:30:55.081Z,1021.93
2018-04-17T12:32:03.904Z,1021.93
2018-04-17T12:33:12.740Z,1021.98
2018-04-17T12:34:21.569Z,1021.97
2018-04-17T12:35:30.394Z,1021.93
2018-04-17T12:36:39.492Z,1021.92
2018-04-17T12:37:48.594Z,1021.93
2018-04-17T12:38:57.687Z,1021.88
2018-04-17T12:40:06.522Z,1021.94
2018-04-17T12:41:15.612Z,1021.97
2018-04-17T12:42:24.443Z,1021.9
2018-04-17T12:43:33.542Z,1021.88
2018-04-17T12:44:42.380Z,1021.8
2018-04-17T12:45:51.201Z,1021.79
2018-04-17T12:47:00.029Z,1021.79
2018-04-17T12:48:08.854Z,1021.82
2018-04-17T12:49:17.688Z,1021.83
2018-04-17T12:50:26.793Z,1021.83
2018-04-17T12:51:35.616Z,1021.82
2018-04-17T12:52:44.446Z,1021.86
2018-04-17T12:53:53.272Z,1021.83
2018-04-17T12:55:02.106Z,1021.83
2018-04-17T12:56:10.926Z,1021.79
2018-04-17T12:57:19.757Z,1021.78
2018-04-17T12:58:28.589Z,1021.79
2018-04-17T12:59:37.417Z,1021.77
2018-04-17T13:00:46.257Z,1021.83
2018-04-17T13:01:55.612Z,1021.83
2018-04-17T13:03:04.442Z,1021.86
2018-04-17T13:04:13.277Z,1021.8
2018-04-17T13:05:22.108Z,1021.87
2018-04-17T13:06:31.207Z,1021.89
2018-04-17T13:07:40.092Z,1021.86
2018-04-17T13:08:48.966Z,1021.85
2018-04-17T13:09:57.803Z,1021.84
2018-04-17T13:11:06.654Z,1021.86
2018-04-17T13:12:15.533Z,1021.81
2018-04-17T13:13:24.358Z,1021.87
2018-04-17T13:14:33.195Z,1021.78
2018-04-17T13:15:42.083Z,1021.77
2018-04-17T13:16:51.000Z,1021.73
2018-04-17T13:17:59.937Z,1021.69
2018-04-17T13:19:08.827Z,1021.71
2018-04-17T13:20:17.658Z,1021.7
2018-04-17T13:21:26.577Z,1021.7
2018-04-17T13:22:35.831Z,1021.69
2018-04-17T13:23:45.320Z,1021.73
2018-04-17T13:24:54.437Z,1021.8
2018-04-17T13:26:03.272Z,1021.75
2018-04-17T13:27:12.096Z,1021.76
2018-04-17T13:28:20.929Z,1021.75
2018-04-17T13:29:29.763Z,1021.75
2018-04-17T13:30:38.783Z,1021.73
2018-04-17T13:31:48.013Z,1021.75
2018-04-17T13:32:56.916Z,1021.71
2018-04-17T13:34:05.748Z,1021.77
2018-04-17T13:35:14.915Z,1021.76
2018-04-17T13:36:24.537Z,1021.72
2018-04-17T13:37:33.338Z,1021.71
2018-04-17T13:38:42.635Z,1021.68
2018-04-17T13:39:51.582Z,1021.69
2018-04-17T13:41:00.453Z,1021.7
2018-04-17T13:42:09.667Z,1021.67
2018-04-17T13:43:18.919Z,1021.68
2018-04-17T13:44:27.774Z,1021.68
2018-04-17T13:45:37.035Z,1021.67
2018-04-17T13:46:46.248Z,1021.67
2018-04-17T13:47:55.156Z,1021.67
2018-04-17T13:49:03.978Z,1021.64
2018-04-17T13:50:12.811Z,1021.63
2018-04-17T13:51:21.635Z,1021.62
2018-04-17T13:52:30.464Z,1021.66
2018-04-17T13:53:39.292Z,1021.61
2018-04-17T13:54:48.127Z,1021.58
2018-04-17T13:55:56.966Z,1021.62
2018-04-17T13:57:05.783Z,1021.67
2018-04-17T13:58:14.615Z,1021.64
2018-04-17T13:59:23.438Z,1021.62
2018-04-17T14:00:32.272Z,1021.64
2018-04-17T14:01:41.095Z,1021.65
2018-04-17T14:02:49.933Z,1021.67
2018-04-17T14:03:59.025Z,1021.62
2018-04-17T14:05:07.857Z,1021.61
2018-04-17T14:06:16.681Z,1021.63
2018-04-17T14:07:25.511Z,1021.61
2018-04-17T14:08:34.342Z,1021.64
2018-04-17T14:09:43.175Z,1021.59
2018-04-17T14:10:52.000Z,1021.6
2018-04-17T14:12:01.369Z,1021.6
2018-04-17T14:13:10.460Z,1021.61
2018-04-17T14:14:19.293Z,1021.62
2018-04-17T14:15:28.260Z,1021.54
2018-04-17T14:16:37.095Z,1021.63
2018-04-17T14:17:45.913Z,1021.58
2018-04-17T14:18:54.814Z,1021.56
2018-04-17T14:20:03.837Z,1021.59
2018-04-17T14:21:13.089Z,1021.63
2018-04-17T14:22:21.950Z,1021.69
2018-04-17T14:23:31.048Z,1021.64
2018-04-17T14:24:39.887Z,1021.62
2018-04-17T14:25:48.704Z,1021.67
2018-04-17T14:26:57.535Z,1021.68
2018-04-17T14:28:06.749Z,1021.73
2018-04-17T14:29:15.585Z,1021.74
2018-04-17T14:30:24.415Z,1021.77
2018-04-17T14:31:33.253Z,1021.75
2018-04-17T14:32:42.348Z,1021.74
2018-04-17T14:33:51.176Z,1021.74
2018-04-17T14:35:00.009Z,1021.78
2018-04-17T14:36:08.834Z,1021.77
2018-04-17T14:37:17.668Z,1021.73
2018-04-17T14:38:26.511Z,1021.79
2018-04-17T14:39:35.405Z,1021.77
2018-04-17T14:40:44.324Z,1021.82
2018-04-17T14:41:53.247Z,1021.78
2018-04-17T14:43:02.807Z,1021.78
2018-04-17T14:44:11.638Z,1021.81
2018-04-17T14:45:20.794Z,1021.76
2018-04-17T14:46:29.691Z,1021.76
2018-04-17T14:47:38.901Z,1021.77
2018-04-17T14:48:47.996Z,1021.8
2018-04-17T14:49:56.823Z,1021.79
2018-04-17T14:51:05.936Z,1021.77
2018-04-17T14:52:14.764Z,1021.8
2018-04-17T14:53:23.593Z,1021.76
2018-04-17T14:54:32.423Z,1021.78
2018-04-17T14:55:41.249Z,1021.81
2018-04-17T14:56:50.341Z,1021.83
2018-04-17T14:57:59.444Z,1021.79
2018-04-17T14:59:08.279Z,1021.84
2018-04-17T15:00:17.379Z,1021.83
2018-04-17T15:01:26.274Z,1021.81
2018-04-17T15:02:35.030Z,1021.83
2018-04-17T15:03:43.867Z,1021.84
2018-04-17T15:04:52.687Z,1021.88
2018-04-17T15:06:01.517Z,1021.89
2018-04-17T15:07:10.342Z,1021.81
2018-04-17T15:08:19.454Z,1021.83
2018-04-17T15:09:28.276Z,1021.81
2018-04-17T15:10:37.103Z,1021.8
2018-04-17T15:11:45.931Z,1021.82
2018-04-17T15:12:54.757Z,1021.78
2018-04-17T15:14:03.865Z,1021.81
2018-04-17T15:15:12.740Z,1021.8
2018-04-17T15:16:21.559Z,1021.78
2018-04-17T15:17:30.774Z,1021.77
2018-04-17T15:18:39.774Z,1021.75
2018-04-17T15:19:48.630Z,1021.81
2018-04-17T15:20:57.455Z,1021.82
2018-04-17T15:22:06.287Z,1021.86
2018-04-17T15:23:15.111Z,1021.85
2018-04-17T15:24:23.949Z,1021.85
2018-04-17T15:25:32.773Z,1021.85
2018-04-17T15:26:41.605Z,1021.85
2018-04-17T15:27:50.433Z,1021.86
2018-04-17T15:28:59.306Z,1021.89
2018-04-17T15:30:08.135Z,1021.9
2018-04-17T15:31:16.960Z,1021.91
2018-04-17T15:32:25.795Z,1021.91
2018-04-17T15:33:34.625Z,1021.93
2018-04-17T15:34:43.723Z,1021.96
2018-04-17T15:35:52.565Z,1022
2018-04-17T15:37:01.392Z,1021.95
2018-04-17T15:38:10.383Z,1021.99
2018-04-17T15:39:19.224Z,1021.96
2018-04-17T15:40:28.051Z,1021.88
2018-04-17T15:41:37.154Z,1021.96
2018-04-17T15:42:45.979Z,1021.94
2018-04-17T15:43:54.813Z,1021.98
2018-04-17T15:45:03.644Z,1022
2018-04-17T15:46:12.473Z,1022
2018-04-17T15:47:21.567Z,1022
2018-04-17T15:48:30.401Z,1022.01
2018-04-17T15:49:39.492Z,1022.02
2018-04-17T15:50:49.241Z,1021.99
2018-04-17T15:51:58.012Z,1021.96
2018-04-17T15:53:06.842Z,1021.99
2018-04-17T15:54:15.674Z,1022.03
2018-04-17T15:55:24.498Z,1022.04
2018-04-17T15:56:33.595Z,1022.02
2018-04-17T15:57:42.467Z,1021.99
2018-04-17T15:58:51.302Z,1022.03
2018-04-17T16:00:00.123Z,1022.03
2018-04-17T16:01:08.958Z,1022.07
2018-04-17T16:02:17.779Z,1022.06
2018-04-17T16:03:26.674Z,1022.02
2018-04-17T16:04:36.107Z,1022.04
2018-04-17T16:05:44.929Z,1022.05
2018-04-17T16:06:53.915Z,1022.06
2018-04-17T16:08:03.051Z,1022.05
2018-04-17T16:09:12.086Z,1022.07
2018-04-17T16:10:21.467Z,1022.02
2018-04-17T16:11:30.776Z,1022.03
2018-04-17T16:12:39.644Z,1022.02
2018-04-17T16:13:49.074Z,1022.03
2018-04-17T16:14:58.519Z,1022.04
2018-04-17T16:16:07.709Z,1022.07
2018-04-17T16:17:16.572Z,1022.09
2018-04-17T16:18:26.072Z,1022.12
2018-04-17T16:19:35.013Z,1022.09
2018-04-17T16:20:43.843Z,1022.1
2018-04-17T16:21:52.665Z,1022.11
2018-04-17T16:23:01.492Z,1022.13
2018-04-17T16:24:10.329Z,1022.13
2018-04-17T16:25:19.160Z,1022.15
2018-04-17T16:26:28.268Z,1022.13
2018-04-17T16:27:37.090Z,1022.12
2018-04-17T16:28:45.946Z,1022.12
2018-04-17T16:29:55.061Z,1022.09
2018-04-17T16:31:03.968Z,1022.1
2018-04-17T16:32:13.581Z,1022.08
2018-04-17T16:33:22.830Z,1022.06
2018-04-17T16:34:32.109Z,1022.07
2018-04-17T16:35:41.378Z,1022.1
2018-04-17T16:36:50.635Z,1022.11
2018-04-17T16:37:59.870Z,1022.11
2018-04-17T16:39:08.768Z,1022.1
2018-04-17T16:40:18.216Z,1022.14
2018-04-17T16:41:27.032Z,1022.1
2018-04-17T16:42:35.901Z,1022.11
2018-04-17T16:43:44.983Z,1022.1
2018-04-17T16:44:53.813Z,1022.14
2018-04-17T16:46:02.646Z,1022.14
2018-04-17T16:47:11.471Z,1022.07
2018-04-17T16:48:20.574Z,1022.1
2018-04-17T16:49:29.398Z,1022.09
2018-04-17T16:50:38.608Z,1022.11
2018-04-17T16:51:47.850Z,1022.14
2018-04-17T16:52:56.668Z,1022.15
2018-04-17T16:54:05.533Z,1022.13
2018-04-17T16:55:14.371Z,1022.16
2018-04-17T16:56:23.200Z,1022.12
2018-04-17T16:57:32.031Z,1022.11
2018-04-17T16:58:40.857Z,1022.1
2018-04-17T16:59:49.912Z,1022.11
2018-04-17T17:00:59.473Z,1022.12
2018-04-17T17:02:08.491Z,1022.12
2018-04-17T17:03:18.135Z,1022.12
2018-04-17T17:04:27.035Z,1022.11
2018-04-17T17:05:35.941Z,1022.14
2018-04-17T17:06:45.016Z,1022.15
2018-04-17T17:07:54.273Z,1022.15
2018-04-17T17:09:03.235Z,1022.09
2018-04-17T17:10:12.412Z,1022.13
2018-04-17T17:11:21.769Z,1022.13
2018-04-17T17:12:30.703Z,1022.13
2018-04-17T17:13:39.883Z,1022.13
2018-04-17T17:14:49.511Z,1022.14
2018-04-17T17:15:58.851Z,1022.14
2018-04-17T17:17:07.818Z,1022.14
2018-04-17T17:18:16.788Z,1022.12
2018-04-17T17:19:26.653Z,1022.13
2018-04-17T17:20:35.918Z,1022.11
2018-04-17T17:21:45.063Z,1022.19
2018-04-17T17:22:54.028Z,1022.17
2018-04-17T17:24:03.215Z,1022.18
2018-04-17T17:25:12.125Z,1022.22
2018-04-17T17:26:21.162Z,1022.21
2018-04-17T17:27:30.655Z,1022.25
2018-04-17T17:28:40.307Z,1022.27
2018-04-17T17:29:49.636Z,1022.3
2018-04-17T17:30:58.858Z,1022.31
2018-04-17T17:32:07.825Z,1022.34
2018-04-17T17:33:16.609Z,1022.33
2018-04-17T17:34:25.846Z,1022.36
2018-04-17T17:35:34.675Z,1022.4
2018-04-17T17:36:43.505Z,1022.42
2018-04-17T17:37:52.340Z,1022.41
2018-04-17T17:39:01.173Z,1022.44
2018-04-17T17:40:09.997Z,1022.49
2018-04-17T17:41:19.089Z,1022.49
2018-04-17T17:42:27.917Z,1022.49
2018-04-17T17:43:36.745Z,1022.55
2018-04-17T17:44:45.586Z,1022.54
2018-04-17T17:45:54.402Z,1022.56
2018-04-17T17:47:03.240Z,1022.57
2018-04-17T17:48:12.334Z,1022.6
2018-04-17T17:49:21.452Z,1022.64
2018-04-17T17:50:30.275Z,1022.65
2018-04-17T17:51:39.105Z,1022.67
2018-04-17T17:52:47.932Z,1022.69
2018-04-17T17:53:56.761Z,1022.7
2018-04-17T17:55:05.590Z,1022.72
2018-04-17T17:56:14.436Z,1022.75
2018-04-17T17:57:23.595Z,1022.74
2018-04-17T17:58:32.740Z,1022.76
2018-04-17T17:59:41.592Z,1022.79
2018-04-17T18:00:50.429Z,1022.82
2018-04-17T18:01:59.272Z,1022.84
2018-04-17T18:03:08.108Z,1022.89
2018-04-17T18:04:16.955Z,1022.87
2018-04-17T18:05:25.800Z,1022.9
2018-04-17T18:06:34.652Z,1022.91
2018-04-17T18:07:43.490Z,1022.94
2018-04-17T18:08:52.342Z,1022.94
2018-04-17T18:10:01.169Z,1022.96
2018-04-17T18:11:10.027Z,1022.97
2018-04-17T18:12:18.846Z,1022.98
2018-04-17T18:13:27.660Z,1022.98
2018-04-17T18:14:36.486Z,1023.01
2018-04-17T18:15:45.609Z,1023
2018-04-17T18:16:54.458Z,1023.02
2018-04-17T18:18:03.303Z,1023.07
2018-04-17T18:19:12.148Z,1023.06
2018-04-17T18:20:20.989Z,1023.09
2018-04-17T18:21:29.843Z,1023.11
2018-04-17T18:22:38.674Z,1023.11
2018-04-17T18:23:47.526Z,1023.11
2018-04-17T18:24:56.366Z,1023.13
2018-04-17T18:26:05.218Z,1023.17
2018-04-17T18:27:14.056Z,1023.19
2018-04-17T18:28:22.909Z,1023.19
2018-04-17T18:29:32.014Z,1023.23
2018-04-17T18:30:40.872Z,1023.25
2018-04-17T18:31:49.715Z,1023.24
2018-04-17T18:32:58.566Z,1023.26
2018-04-17T18:34:07.410Z,1023.24
2018-04-17T18:35:16.254Z,1023.26
2018-04-17T18:36:25.375Z,1023.28
2018-04-17T18:37:34.224Z,1023.28
2018-04-17T18:38:43.065Z,1023.3
2018-04-17T18:39:51.907Z,1023.3
2018-04-17T18:41:00.768Z,1023.29
2018-04-17T18:42:09.621Z,1023.29
2018-04-17T18:43:18.461Z,1023.33
2018-04-17T18:44:27.304Z,1023.37
2018-04-17T18:45:36.162Z,1023.38
2018-04-17T18:46:45.006Z,1023.39
2018-04-17T18:47:53.847Z,1023.4
2018-04-17T18:49:02.689Z,1023.41
2018-04-17T18:50:11.530Z,1023.39
2018-04-17T18:51:20.372Z,1023.4
2018-04-17T18:52:29.222Z,1023.42
2018-04-17T18:53:38.344Z,1023.41
2018-04-17T18:54:47.187Z,1023.43
2018-04-17T18:55:56.026Z,1023.42
2018-04-17T18:57:04.869Z,1023.41
2018-04-17T18:58:13.721Z,1023.43
2018-04-17T18:59:22.824Z,1023.44
2018-04-17T19:00:31.678Z,1023.45
2018-04-17T19:01:40.522Z,1023.45
2018-04-17T19:02:49.374Z,1023.42
2018-04-17T19:03:58.216Z,1023.42
2018-04-17T19:05:07.061Z,1023.43
2018-04-17T19:06:15.912Z,1023.43
2018-04-17T19:07:25.022Z,1023.45
2018-04-17T19:08:33.874Z,1023.46
2018-04-17T19:09:42.710Z,1023.45
2018-04-17T19:10:51.538Z,1023.51
2018-04-17T19:12:00.372Z,1023.52
2018-04-17T19:13:09.469Z,1023.52
2018-04-17T19:14:18.344Z,1023.55
2018-04-17T19:15:27.421Z,1023.56
2018-04-17T19:16:36.557Z,1023.58
2018-04-17T19:17:45.676Z,1023.61
2018-04-17T19:18:54.868Z,1023.61
2018-04-17T19:20:03.842Z,1023.61
2018-04-17T19:21:12.769Z,1023.63
2018-04-17T19:22:22.055Z,1023.6
2018-04-17T19:23:31.413Z,1023.6
2018-04-17T19:24:40.327Z,1023.63
2018-04-17T19:25:49.233Z,1023.68
2018-04-17T19:26:58.191Z,1023.65
2018-04-17T19:28:07.473Z,1023.68
2018-04-17T19:29:16.437Z,1023.69
2018-04-17T19:30:25.279Z,1023.67
2018-04-17T19:31:34.205Z,1023.7
2018-04-17T19:32:43.072Z,1023.71
2018-04-17T19:33:52.097Z,1023.72
2018-04-17T19:35:01.204Z,1023.75
2018-04-17T19:36:10.128Z,1023.74
2018-04-17T19:37:19.048Z,1023.76
2018-04-17T19:38:27.971Z,1023.78
2018-04-17T19:39:37.185Z,1023.8
2018-04-17T19:40:46.692Z,1023.81
2018-04-17T19:41:55.632Z,1023.81
2018-04-17T19:43:04.940Z,1023.8
2018-04-17T19:44:13.876Z,1023.77
2018-04-17T19:45:22.742Z,1023.85
2018-04-17T19:46:31.811Z,1023.87
2018-04-17T19:47:41.064Z,1023.9
2018-04-17T19:48:50.297Z,1023.9
2018-04-17T19:49:59.215Z,1023.9
2018-04-17T19:51:08.145Z,1023.9
2018-04-17T19:52:17.108Z,1023.93
2018-04-17T19:53:26.334Z,1023.97
2018-04-17T19:54:35.278Z,1023.96
2018-04-17T19:55:44.158Z,1023.94
2018-04-17T19:56:53.344Z,1024
2018-04-17T19:58:02.292Z,1023.98
2018-04-17T19:59:11.172Z,1024.01
2018-04-17T20:00:20.519Z,1024.01
2018-04-17T20:01:29.657Z,1024.02
2018-04-17T20:02:38.942Z,1024.02
2018-04-17T20:03:47.897Z,1024.03
2018-04-17T20:04:57.134Z,1024.02
2018-04-17T20:06:06.357Z,1024.04
2018-04-17T20:07:15.256Z,1024.05
2018-04-17T20:08:24.459Z,1024.09
2018-04-17T20:09:33.462Z,1024.04
2018-04-17T20:10:42.346Z,1024.03
2018-04-17T20:11:51.279Z,1024.03
2018-04-17T20:13:01.008Z,1024.03
2018-04-17T20:14:10.179Z,1024
2018-04-17T20:15:19.044Z,1024.05
2018-04-17T20:16:28.137Z,1024.02
2018-04-17T20:17:37.162Z,1024.02
2018-04-17T20:18:46.288Z,1024.05
2018-04-17T20:19:55.831Z,1024.03
2018-04-17T20:21:05.141Z,1024.03
2018-04-17T20:22:14.251Z,1024.05
2018-04-17T20:23:23.529Z,1024.09
2018-04-17T20:24:32.791Z,1024.09
2018-04-17T20:25:41.682Z,1024.09
2018-04-17T20:26:50.673Z,1024.1
2018-04-17T20:27:59.937Z,1024.05
2018-04-17T20:29:08.948Z,1024.11
2018-04-17T20:30:17.819Z,1024.13
2018-04-17T20:31:26.711Z,1024.15
2018-04-17T20:32:35.542Z,1024.16
2018-04-17T20:33:44.522Z,1024.16
2018-04-17T20:34:53.689Z,1024.16
2018-04-17T20:36:02.559Z,1024.17
2018-04-17T20:37:11.502Z,1024.17
2018-04-17T20:38:20.584Z,1024.2
2018-04-17T20:39:29.419Z,1024.18
2018-04-17T20:40:38.793Z,1024.23
2018-04-17T20:41:47.937Z,1024.2
2018-04-17T20:42:56.765Z,1024.27
2018-04-17T20:44:05.658Z,1024.24
2018-04-17T20:45:14.806Z,1024.21
2018-04-17T20:46:23.627Z,1024.2
2018-04-17T20:47:32.809Z,1024.2
2018-04-17T20:48:41.627Z,1024.18
2018-04-17T20:49:50.460Z,1024.2
2018-04-17T20:50:59.323Z,1024.18
2018-04-17T20:52:08.152Z,1024.18
2018-04-17T20:53:17.212Z,1024.17
2018-04-17T20:54:26.319Z,1024.19
2018-04-17T20:55:35.145Z,1024.22
2018-04-17T20:56:43.969Z,1024.2
2018-04-17T20:57:52.793Z,1024.19
2018-04-17T20:59:01.625Z,1024.15
2018-04-17T21:00:10.451Z,1024.2
2018-04-17T21:01:19.287Z,1024.21
2018-04-17T21:02:28.132Z,1024.21
2018-04-17T21:03:36.977Z,1024.25
2018-04-17T21:04:45.826Z,1024.23
2018-04-17T21:05:54.664Z,1024.24
2018-04-17T21:07:03.518Z,1024.24
2018-04-17T21:08:12.363Z,1024.2
2018-04-17T21:09:21.203Z,1024.22
2018-04-17T21:10:30.047Z,1024.22
2018-04-17T21:11:38.896Z,1024.22
2018-04-17T21:12:47.735Z,1024.22
2018-04-17T21:13:56.579Z,1024.25
2018-04-17T21:15:05.425Z,1024.21
2018-04-17T21:16:14.270Z,1024.23
2018-04-17T21:17:23.148Z,1024.23
